Time,TemperatureF,DewpointF,PressureIn,WindDirection,WindDirectionDegrees,WindSpeedMPH,WindSpeedGustMPH,Humidity,HourlyPrecipIn,Conditions,Clouds,dailyrainin,SoftwareType,DateUTC
2013-03-16 00:00:00,34.9,25.4,29.69,North,0,0.0,0.0,68,0.00,,,0.00,WUHU216HW,2013-03-16 04:00:00,
2013-03-16 00:05:00,34.9,25.4,29.69,North,0,0.0,0.0,68,0.00,,,0.00,WUHU216HW,2013-03-16 04:05:00,
2013-03-16 00:30:00,34.9,25.0,29.70,North,0,0.0,0.0,67,0.00,,,0.00,WUHU216HW,2013-03-16 04:30:00,
2013-03-16 00:35:00,34.9,25.0,29.70,North,0,0.0,0.0,67,0.00,,,0.00,WUHU216HW,2013-03-16 04:35:00,
2013-03-16 00:59:00,34.9,24.7,29.71,North,0,0.0,0.0,66,0.00,,,0.00,WUHU216HW,2013-03-16 04:59:00,
2013-03-16 01:00:00,34.9,24.7,29.71,North,0,0.0,0.0,66,0.00,,,0.00,WUHU216HW,2013-03-16 05:00:00,
2013-03-16 01:05:00,34.9,24.7,29.71,North,0,0.0,0.0,66,0.00,,,0.00,WUHU216HW,2013-03-16 05:05:00,
2013-03-16 01:30:00,34.9,24.3,29.72,North,0,0.0,0.0,65,0.00,,,0.00,WUHU216HW,2013-03-16 05:30:00,
2013-03-16 01:35:00,34.9,24.3,29.72,North,0,0.0,0.0,65,0.00,,,0.00,WUHU216HW,2013-03-16 05:35:00,
2013-03-16 01:59:00,34.2,23.2,29.74,North,0,0.0,0.0,64,0.00,,,0.00,WUHU216HW,2013-03-16 05:59:00,
2013-03-16 02:00:00,34.2,23.2,29.74,North,0,0.0,0.0,64,0.00,,,0.00,WUHU216HW,2013-03-16 06:00:00,
2013-03-16 02:05:00,34.2,23.2,29.74,North,0,0.0,0.0,64,0.00,,,0.00,WUHU216HW,2013-03-16 06:05:00,
2013-03-16 02:30:00,33.5,22.1,29.75,North,0,0.0,0.0,63,0.00,,,0.00,WUHU216HW,2013-03-16 06:30:00,
2013-03-16 02:35:00,33.5,22.1,29.75,North,0,0.0,0.0,63,0.00,,,0.00,WUHU216HW,2013-03-16 06:35:00,
2013-03-16 02:59:00,32.4,21.3,29.75,North,0,0.0,0.0,63,0.00,,,0.00,WUHU216HW,2013-03-16 06:59:00,
2013-03-16 03:00:00,32.4,21.3,29.75,North,0,0.0,0.0,63,0.00,,,0.00,WUHU216HW,2013-03-16 07:00:00,
2013-03-16 03:05:00,32.4,21.3,29.75,North,0,0.0,0.0,63,0.00,,,0.00,WUHU216HW,2013-03-16 07:05:00,
2013-03-16 03:30:00,31.7,20.5,29.76,North,0,0.0,0.0,63,0.00,,,0.00,WUHU216HW,2013-03-16 07:30:00,
2013-03-16 03:35:00,31.7,20.5,29.76,North,0,0.0,0.0,63,0.00,,,0.00,WUHU216HW,2013-03-16 07:35:00,
2013-03-16 03:59:00,31.7,20.2,29.77,North,0,0.0,0.0,62,0.00,,,0.00,WUHU216HW,2013-03-16 07:59:00,
2013-03-16 04:00:00,31.7,20.2,29.77,North,0,0.0,0.0,62,0.00,,,0.00,WUHU216HW,2013-03-16 08:00:00,
2013-03-16 04:05:00,31.7,20.2,29.77,North,0,0.0,0.0,62,0.00,,,0.00,WUHU216HW,2013-03-16 08:05:00,
2013-03-16 04:30:00,30.8,19.6,29.78,North,0,0.0,0.0,63,0.00,,,0.00,WUHU216HW,2013-03-16 08:30:00,
2013-03-16 04:35:00,30.8,19.6,29.78,North,0,0.0,0.0,63,0.00,,,0.00,WUHU216HW,2013-03-16 08:35:00,
2013-03-16 04:59:00,30.4,19.6,29.79,North,0,0.0,0.0,64,0.00,,,0.00,WUHU216HW,2013-03-16 08:59:00,
2013-03-16 05:00:00,30.4,19.6,29.79,North,0,0.0,0.0,64,0.00,,,0.00,WUHU216HW,2013-03-16 09:00:00,
2013-03-16 05:05:00,30.4,19.6,29.79,North,0,0.0,0.0,64,0.00,,,0.00,WUHU216HW,2013-03-16 09:05:00,
2013-03-16 05:30:00,30.1,19.3,29.80,North,0,0.0,0.0,64,0.00,,,0.00,WUHU216HW,2013-03-16 09:30:00,
2013-03-16 05:35:00,30.1,19.3,29.80,North,0,0.0,0.0,64,0.00,,,0.00,WUHU216HW,2013-03-16 09:35:00,
2013-03-16 06:00:00,29.3,18.6,29.83,North,0,0.0,0.0,64,0.00,,,0.00,WUHU216HW,2013-03-16 10:00:00,
2013-03-16 06:05:00,29.3,18.6,29.83,North,0,0.0,0.0,64,0.00,,,0.00,WUHU216HW,2013-03-16 10:05:00,
2013-03-16 06:30:00,29.2,18.1,29.84,North,0,0.0,0.0,63,0.00,,,0.00,WUHU216HW,2013-03-16 10:30:00,
2013-03-16 06:35:00,29.2,18.1,29.84,North,0,0.0,0.0,63,0.00,,,0.00,WUHU216HW,2013-03-16 10:35:00,
2013-03-16 07:00:00,28.4,17.5,29.85,North,0,0.0,0.0,63,0.00,,,0.00,WUHU216HW,2013-03-16 11:00:00,
2013-03-16 07:05:00,28.4,17.5,29.85,North,0,0.0,0.0,63,0.00,,,0.00,WUHU216HW,2013-03-16 11:05:00,
2013-03-16 07:30:00,28.3,16.6,29.85,North,0,0.0,0.0,61,0.00,,,0.00,WUHU216HW,2013-03-16 11:30:00,
2013-03-16 07:35:00,28.3,16.6,29.85,North,0,0.0,0.0,61,0.00,,,0.00,WUHU216HW,2013-03-16 11:35:00,
2013-03-16 07:59:00,29.0,16.5,29.86,North,0,0.0,0.0,59,0.00,,,0.00,WUHU216HW,2013-03-16 11:59:00,
2013-03-16 08:00:00,29.0,16.5,29.86,North,0,0.0,0.0,59,0.00,,,0.00,WUHU216HW,2013-03-16 12:00:00,
2013-03-16 08:05:00,29.0,16.5,29.86,North,0,0.0,0.0,59,0.00,,,0.00,WUHU216HW,2013-03-16 12:05:00,
2013-03-16 08:30:00,30.2,16.4,29.87,North,0,0.0,0.0,56,0.00,,,0.00,WUHU216HW,2013-03-16 12:30:00,
2013-03-16 08:35:00,30.2,16.4,29.87,North,0,0.0,0.0,56,0.00,,,0.00,WUHU216HW,2013-03-16 12:35:00,
2013-03-16 08:59:00,31.3,16.6,29.87,North,0,0.0,0.0,54,0.00,,,0.00,WUHU216HW,2013-03-16 12:59:00,
2013-03-16 09:00:00,31.3,16.6,29.87,North,0,0.0,0.0,54,0.00,,,0.00,WUHU216HW,2013-03-16 13:00:00,
2013-03-16 09:05:00,31.3,16.6,29.87,North,0,0.0,0.0,54,0.00,,,0.00,WUHU216HW,2013-03-16 13:05:00,
2013-03-16 09:30:00,33.5,15.8,29.87,North,0,0.0,0.0,48,0.00,,,0.00,WUHU216HW,2013-03-16 13:30:00,
2013-03-16 09:35:00,33.5,15.8,29.87,North,0,0.0,0.0,48,0.00,,,0.00,WUHU216HW,2013-03-16 13:35:00,
2013-03-16 09:59:00,37.4,20.0,29.87,North,0,0.0,0.0,49,0.00,,,0.00,WUHU216HW,2013-03-16 13:59:00,
2013-03-16 10:00:00,37.4,20.0,29.87,North,0,0.0,0.0,49,0.00,,,0.00,WUHU216HW,2013-03-16 14:00:00,
2013-03-16 10:05:00,37.4,20.0,29.87,North,0,0.0,0.0,49,0.00,,,0.00,WUHU216HW,2013-03-16 14:05:00,
2013-03-16 10:30:00,36.0,15.6,29.86,North,0,0.0,0.0,43,0.00,,,0.00,WUHU216HW,2013-03-16 14:30:00,
2013-03-16 10:35:00,36.0,15.6,29.86,North,0,0.0,0.0,43,0.00,,,0.00,WUHU216HW,2013-03-16 14:35:00,
2013-03-16 10:59:00,37.8,17.7,29.85,North,0,0.0,0.0,44,0.00,,,0.00,WUHU216HW,2013-03-16 14:59:00,
2013-03-16 11:00:00,37.8,17.7,29.85,North,0,0.0,0.0,44,0.00,,,0.00,WUHU216HW,2013-03-16 15:00:00,
2013-03-16 11:05:00,37.8,17.7,29.85,North,0,0.0,0.0,44,0.00,,,0.00,WUHU216HW,2013-03-16 15:05:00,
2013-03-16 11:30:00,36.4,15.4,29.86,North,0,0.0,0.0,42,0.00,,,0.00,WUHU216HW,2013-03-16 15:30:00,
2013-03-16 11:35:00,36.4,15.4,29.86,North,0,0.0,0.0,42,0.00,,,0.00,WUHU216HW,2013-03-16 15:35:00,
2013-03-16 11:59:00,36.2,14.1,29.85,North,0,0.0,0.0,40,0.00,,,0.00,WUHU216HW,2013-03-16 15:59:00,
2013-03-16 12:00:00,36.2,14.1,29.85,North,0,0.0,0.0,40,0.00,,,0.00,WUHU216HW,2013-03-16 16:00:00,
2013-03-16 12:05:00,36.2,14.1,29.85,North,0,0.0,0.0,40,0.00,,,0.00,WUHU216HW,2013-03-16 16:05:00,
2013-03-16 12:30:00,37.1,16.0,29.84,North,0,0.0,0.0,42,0.00,,,0.00,WUHU216HW,2013-03-16 16:30:00,
2013-03-16 12:35:00,37.1,16.0,29.84,North,0,0.0,0.0,42,0.00,,,0.00,WUHU216HW,2013-03-16 16:35:00,
2013-03-16 12:59:00,38.7,16.5,29.84,North,0,0.0,0.0,40,0.00,,,0.00,WUHU216HW,2013-03-16 16:59:00,
2013-03-16 13:00:00,38.7,16.5,29.84,North,0,0.0,0.0,40,0.00,,,0.00,WUHU216HW,2013-03-16 17:00:00,
2013-03-16 13:05:00,38.7,16.5,29.84,North,0,0.0,0.0,40,0.00,,,0.00,WUHU216HW,2013-03-16 17:05:00,
2013-03-16 13:30:00,40.5,15.5,29.83,North,0,0.0,0.0,36,0.00,,,0.00,WUHU216HW,2013-03-16 17:30:00,
2013-03-16 13:35:00,40.5,15.5,29.83,North,0,0.0,0.0,36,0.00,,,0.00,WUHU216HW,2013-03-16 17:35:00,
2013-03-16 13:59:00,40.1,14.5,29.82,North,0,0.0,0.0,35,0.00,,,0.00,WUHU216HW,2013-03-16 17:59:00,
2013-03-16 14:00:00,40.1,14.5,29.82,North,0,0.0,0.0,35,0.00,,,0.00,WUHU216HW,2013-03-16 18:00:00,
2013-03-16 14:05:00,40.1,14.5,29.82,North,0,0.0,0.0,35,0.00,,,0.00,WUHU216HW,2013-03-16 18:05:00,
2013-03-16 14:30:00,42.1,15.0,29.81,North,0,0.0,0.0,33,0.00,,,0.00,WUHU216HW,2013-03-16 18:30:00,
2013-03-16 14:35:00,42.1,15.0,29.81,North,0,0.0,0.0,33,0.00,,,0.00,WUHU216HW,2013-03-16 18:35:00,
2013-03-16 14:59:00,41.4,14.3,29.81,North,0,0.0,0.0,33,0.00,,,0.00,WUHU216HW,2013-03-16 18:59:00,
2013-03-16 15:00:00,41.4,14.3,29.81,North,0,0.0,0.0,33,0.00,,,0.00,WUHU216HW,2013-03-16 19:00:00,
2013-03-16 15:05:00,41.4,14.3,29.81,North,0,0.0,0.0,33,0.00,,,0.00,WUHU216HW,2013-03-16 19:05:00,
2013-03-16 15:30:00,41.6,15.8,29.81,North,0,0.0,0.0,35,0.00,,,0.00,WUHU216HW,2013-03-16 19:30:00,
2013-03-16 15:35:00,41.6,15.8,29.81,North,0,0.0,0.0,35,0.00,,,0.00,WUHU216HW,2013-03-16 19:35:00,
2013-03-16 15:59:00,42.3,15.0,29.81,North,0,0.0,0.0,33,0.00,,,0.00,WUHU216HW,2013-03-16 19:59:00,
2013-03-16 16:00:00,42.3,15.0,29.81,North,0,0.0,0.0,33,0.00,,,0.00,WUHU216HW,2013-03-16 20:00:00,
2013-03-16 16:05:00,42.3,15.0,29.81,North,0,0.0,0.0,33,0.00,,,0.00,WUHU216HW,2013-03-16 20:05:00,
2013-03-16 16:29:00,42.8,15.5,29.80,North,0,0.0,0.0,33,0.00,,,0.00,WUHU216HW,2013-03-16 20:29:00,
2013-03-16 16:30:00,42.8,15.5,29.80,North,0,0.0,0.0,33,0.00,,,0.00,WUHU216HW,2013-03-16 20:30:00,
2013-03-16 16:35:00,42.8,15.5,29.80,North,0,0.0,0.0,33,0.00,,,0.00,WUHU216HW,2013-03-16 20:35:00,
2013-03-16 16:59:00,44.1,16.7,29.79,North,0,0.0,0.0,33,0.00,,,0.00,WUHU216HW,2013-03-16 20:59:00,
2013-03-16 17:00:00,44.1,16.7,29.79,North,0,0.0,0.0,33,0.00,,,0.00,WUHU216HW,2013-03-16 21:00:00,
2013-03-16 17:05:00,44.1,16.7,29.79,North,0,0.0,0.0,33,0.00,,,0.00,WUHU216HW,2013-03-16 21:05:00,
2013-03-16 17:29:00,42.5,15.2,29.80,North,0,0.0,0.0,33,0.00,,,0.00,WUHU216HW,2013-03-16 21:29:00,
2013-03-16 17:30:00,42.5,15.2,29.80,North,0,0.0,0.0,33,0.00,,,0.00,WUHU216HW,2013-03-16 21:30:00,
2013-03-16 17:35:00,42.5,15.2,29.80,North,0,0.0,0.0,33,0.00,,,0.00,WUHU216HW,2013-03-16 21:35:00,
2013-03-16 18:00:00,41.0,15.9,29.79,North,0,0.0,0.0,36,0.00,,,0.00,WUHU216HW,2013-03-16 22:00:00,
2013-03-16 18:05:00,41.0,15.9,29.79,North,0,0.0,0.0,36,0.00,,,0.00,WUHU216HW,2013-03-16 22:05:00,
2013-03-16 18:30:00,39.6,15.3,29.80,North,0,0.0,0.0,37,0.00,,,0.00,WUHU216HW,2013-03-16 22:30:00,
2013-03-16 18:35:00,39.6,15.3,29.80,North,0,0.0,0.0,37,0.00,,,0.00,WUHU216HW,2013-03-16 22:35:00,
2013-03-16 19:00:00,38.9,15.9,29.81,North,0,0.0,0.0,39,0.00,,,0.00,WUHU216HW,2013-03-16 23:00:00,
2013-03-16 19:05:00,38.9,15.9,29.81,North,0,0.0,0.0,39,0.00,,,0.00,WUHU216HW,2013-03-16 23:05:00,
2013-03-16 19:30:00,38.2,15.9,29.81,North,0,0.0,0.0,40,0.00,,,0.00,WUHU216HW,2013-03-16 23:30:00,
2013-03-16 19:35:00,38.2,15.9,29.81,North,0,0.0,0.0,40,0.00,,,0.00,WUHU216HW,2013-03-16 23:35:00,
2013-03-16 20:00:00,38.0,17.4,29.83,North,0,0.0,0.0,43,0.00,,,0.00,WUHU216HW,2013-03-17 00:00:00,
2013-03-16 20:05:00,38.0,17.4,29.83,North,0,0.0,0.0,43,0.00,,,0.00,WUHU216HW,2013-03-17 00:05:00,
2013-03-16 20:30:00,37.8,17.7,29.84,North,0,0.0,0.0,44,0.00,,,0.00,WUHU216HW,2013-03-17 00:30:00,
2013-03-16 20:35:00,37.8,17.7,29.84,North,0,0.0,0.0,44,0.00,,,0.00,WUHU216HW,2013-03-17 00:35:00,
2013-03-16 20:59:00,37.1,17.6,29.85,North,0,0.0,0.0,45,0.00,,,0.00,WUHU216HW,2013-03-17 00:59:00,
2013-03-16 21:00:00,37.1,17.6,29.85,North,0,0.0,0.0,45,0.00,,,0.00,WUHU216HW,2013-03-17 01:00:00,
2013-03-16 21:05:00,37.1,17.6,29.85,North,0,0.0,0.0,45,0.00,,,0.00,WUHU216HW,2013-03-17 01:05:00,
2013-03-16 21:29:00,36.7,17.3,29.86,North,0,0.0,0.0,45,0.00,,,0.00,WUHU216HW,2013-03-17 01:29:00,
2013-03-16 21:30:00,36.7,17.3,29.86,North,0,0.0,0.0,45,0.00,,,0.00,WUHU216HW,2013-03-17 01:30:00,
2013-03-16 21:35:00,36.7,17.3,29.86,North,0,0.0,0.0,45,0.00,,,0.00,WUHU216HW,2013-03-17 01:35:00,
2013-03-16 21:59:00,36.2,17.8,29.86,North,0,0.0,0.0,47,0.00,,,0.00,WUHU216HW,2013-03-17 01:59:00,
2013-03-16 22:00:00,36.2,17.8,29.86,North,0,0.0,0.0,47,0.00,,,0.00,WUHU216HW,2013-03-17 02:00:00,
2013-03-16 22:05:00,36.2,17.8,29.86,North,0,0.0,0.0,47,0.00,,,0.00,WUHU216HW,2013-03-17 02:05:00,
2013-03-16 22:29:00,35.6,17.8,29.88,North,0,0.0,0.0,48,0.00,,,0.00,WUHU216HW,2013-03-17 02:29:00,
2013-03-16 22:30:00,35.6,17.8,29.88,North,0,0.0,0.0,48,0.00,,,0.00,WUHU216HW,2013-03-17 02:30:00,
2013-03-16 22:35:00,35.6,17.8,29.88,North,0,0.0,0.0,48,0.00,,,0.00,WUHU216HW,2013-03-17 02:35:00,
2013-03-16 22:59:00,34.9,16.7,29.88,North,0,0.0,0.0,47,0.00,,,0.00,WUHU216HW,2013-03-17 02:59:00,
2013-03-16 23:00:00,34.9,16.7,29.88,North,0,0.0,0.0,47,0.00,,,0.00,WUHU216HW,2013-03-17 03:00:00,
2013-03-16 23:05:00,34.9,16.7,29.88,North,0,0.0,0.0,47,0.00,,,0.00,WUHU216HW,2013-03-17 03:05:00,
2013-03-16 23:29:00,33.7,15.9,29.89,North,0,0.0,0.0,48,0.00,,,0.00,WUHU216HW,2013-03-17 03:29:00,
2013-03-16 23:30:00,33.7,15.9,29.89,North,0,0.0,0.0,48,0.00,,,0.00,WUHU216HW,2013-03-17 03:30:00,
2013-03-16 23:35:00,33.7,15.9,29.89,North,0,0.0,0.0,48,0.00,,,0.00,WUHU216HW,2013-03-17 03:35:00,
2013-03-16 23:59:00,32.8,15.7,29.90,North,0,0.0,0.0,49,0.00,,,0.00,WUHU216HW,2013-03-17 03:59:00,